Time;durP1;ratioP1;P1;durP2;ratioP2;P2;SDS_P1;SDS_P2;PMS_P1;PMS_P2;Temp;Humidity;BMP_temperature;BMP_pressure;BME280_temperature;BME280_humidity;BME280_pressure;Samples;Min_cycle;Max_cycle;Signal;HPM_P1;HPM_P2
2023/08/24 00:01:03;;;;;;;4.32;2.30;;;;;;;17.06;100.00;100936.75;5959455;29;20043;-91
2023/08/24 00:04:08;;;;;;;3.63;2.38;;;;;;;16.99;100.00;100936.53;5956495;29;20046;-92
2023/08/24 00:07:10;;;;;;;3.08;2.28;;;;;;;16.92;100.00;100928.50;5957559;29;20117;-92
2023/08/24 00:10:12;;;;;;;3.45;2.60;;;;;;;16.90;100.00;100930.44;5948533;29;20154;-92
2023/08/24 00:13:15;;;;;;;5.32;2.38;;;;;;;16.87;100.00;100937.75;5956353;29;20050;-91
2023/08/24 00:16:18;;;;;;;3.42;2.92;;;;;;;16.83;100.00;100932.03;5954016;29;20125;-91
2023/08/24 00:19:20;;;;;;;2.90;2.60;;;;;;;16.78;100.00;100935.09;5955594;29;20047;-92
2023/08/24 00:22:21;;;;;;;4.93;2.47;;;;;;;16.77;100.00;100943.91;5956186;29;20047;-92
2023/08/24 00:25:24;;;;;;;3.88;2.55;;;;;;;16.77;100.00;100943.91;5955754;29;20051;-91
2023/08/24 00:28:26;;;;;;;2.97;2.60;;;;;;;16.82;100.00;100947.84;5953200;29;20200;-92
2023/08/24 00:31:28;;;;;;;3.50;2.90;;;;;;;16.84;100.00;100936.28;5955246;29;20066;-92
2023/08/24 00:34:29;;;;;;;5.30;3.22;;;;;;;16.89;100.00;100943.66;5954413;29;20721;-92
2023/08/24 00:37:33;;;;;;;3.42;2.67;;;;;;;16.85;100.00;100937.94;5963298;29;20053;-90
2023/08/24 00:40:36;;;;;;;4.82;2.60;;;;;;;16.81;100.00;100933.16;5956822;29;20041;-91
2023/08/24 00:43:38;;;;;;;6.40;2.85;;;;;;;16.77;100.00;100922.97;5952193;29;20055;-92
2023/08/24 00:46:41;;;;;;;4.00;2.47;;;;;;;16.72;100.00;100930.47;5955423;29;20042;-91
2023/08/24 00:49:43;;;;;;;3.63;2.45;;;;;;;16.64;100.00;100924.31;5948062;29;20046;-91
2023/08/24 00:52:47;;;;;;;2.55;2.30;;;;;;;16.54;100.00;100922.59;5955348;29;20051;-91
2023/08/24 00:55:49;;;;;;;3.72;2.55;;;;;;;16.47;100.00;100931.19;5956666;29;20039;-91
2023/08/24 00:58:53;;;;;;;2.47;2.20;;;;;;;16.43;100.00;100925.47;5969761;29;20051;-92
2023/08/24 01:01:56;;;;;;;2.80;2.40;;;;;;;16.39;100.00;100926.72;5970870;29;20046;-92
2023/08/24 01:04:58;;;;;;;3.80;2.60;;;;;;;16.38;100.00;100922.47;5957079;29;20157;-92
2023/08/24 01:08:00;;;;;;;4.18;2.70;;;;;;;16.34;100.00;100921.13;5950095;29;20565;-92
2023/08/24 01:11:13;;;;;;;5.32;2.83;;;;;;;16.35;100.00;100917.56;5957225;29;20043;-93
2023/08/24 01:14:44;;;;;;;4.00;2.90;;;;;;;16.33;100.00;100924.72;5957466;29;20524;-91
2023/08/24 01:17:49;;;;;;;3.30;2.88;;;;;;;16.31;100.00;100917.00;5948668;29;20165;-92
2023/08/24 01:20:51;;;;;;;4.95;3.40;;;;;;;16.29;100.00;100923.38;5953346;29;20085;-92
2023/08/24 01:24:18;;;;;;;5.03;2.72;;;;;;;16.30;100.00;100927.63;5922211;29;20046;-92
2023/08/24 01:27:21;;;;;;;4.22;3.53;;;;;;;16.32;100.00;100928.28;5937711;29;20058;-91
2023/08/24 01:30:23;;;;;;;4.55;3.05;;;;;;;16.32;100.00;100923.06;5937162;29;20776;-91
2023/08/24 01:33:25;;;;;;;4.50;3.38;;;;;;;16.30;100.00;100927.63;5952752;29;20062;-91
2023/08/24 01:36:28;;;;;;;3.85;2.85;;;;;;;16.29;100.00;100928.59;5953262;29;20066;-91
2023/08/24 01:39:43;;;;;;;6.47;3.70;;;;;;;16.27;100.00;100923.53;5953129;29;20135;-91
2023/08/24 01:42:51;;;;;;;3.42;3.10;;;;;;;16.27;100.00;100922.69;5951616;29;20039;-92
2023/08/24 01:45:56;;;;;;;4.05;3.10;;;;;;;16.23;100.00;100914.34;5952297;29;20043;-93
2023/08/24 01:48:58;;;;;;;6.90;3.42;;;;;;;16.19;100.00;100923.44;5952964;29;20062;-92
2023/08/24 01:52:04;;;;;;;4.28;3.42;;;;;;;16.17;100.00;100920.13;5937803;29;20107;-91
2023/08/24 01:55:06;;;;;;;5.47;3.55;;;;;;;16.14;100.00;100923.06;5950291;29;20069;-92
2023/08/24 01:58:08;;;;;;;3.75;3.10;;;;;;;16.07;100.00;100915.00;5947611;29;20109;-92
2023/08/24 02:01:10;;;;;;;4.60;3.20;;;;;;;16.01;100.00;100922.59;5954600;29;20387;-91
2023/08/24 02:04:13;;;;;;;4.15;3.15;;;;;;;15.92;100.00;100924.28;5954230;29;20107;-91
2023/08/24 02:07:15;;;;;;;9.80;3.30;;;;;;;15.85;100.00;100920.59;5954271;29;20047;-91
2023/08/24 02:10:17;;;;;;;5.22;2.88;;;;;;;15.79;100.00;100908.16;5939200;29;20047;-91
2023/08/24 02:13:19;;;;;;;5.10;3.40;;;;;;;15.75;100.00;100906.78;5950648;29;20062;-91
2023/08/24 02:16:21;;;;;;;3.72;3.13;;;;;;;15.73;100.00;100913.97;5957245;29;20078;-91
2023/08/24 02:19:25;;;;;;;4.18;3.35;;;;;;;15.69;100.00;100900.34;5957548;29;20509;-91
2023/08/24 02:22:29;;;;;;;3.85;3.50;;;;;;;15.70;100.00;100905.44;5955397;29;20050;-92
2023/08/24 02:25:31;;;;;;;4.07;3.67;;;;;;;15.69;100.00;100900.34;5958826;29;20043;-91
2023/08/24 02:28:34;;;;;;;4.32;3.33;;;;;;;15.64;100.00;100905.16;5933481;29;20043;-91
2023/08/24 02:31:36;;;;;;;3.95;3.38;;;;;;;15.60;100.00;100909.03;5945346;29;20055;-92
2023/08/24 02:34:38;;;;;;;3.45;3.08;;;;;;;15.56;100.00;100903.28;5959190;29;20505;-91
2023/08/24 02:37:42;;;;;;;4.05;3.65;;;;;;;15.52;100.00;100896.69;5963364;29;20053;-91
2023/08/24 02:40:43;;;;;;;5.20;3.95;;;;;;;15.50;100.00;100891.66;5959515;29;20039;-91
2023/08/24 02:43:45;;;;;;;6.53;3.97;;;;;;;15.49;100.00;100889.97;5960489;29;20053;-91
2023/08/24 02:46:48;;;;;;;6.22;4.03;;;;;;;15.50;100.00;100896.03;5949311;29;20086;-91
2023/08/24 02:49:51;;;;;;;5.72;3.92;;;;;;;15.48;100.00;100893.56;5975801;29;20054;-91
2023/08/24 02:52:54;;;;;;;5.40;3.60;;;;;;;15.46;100.00;100884.25;5971882;29;20215;-92
2023/08/24 02:55:58;;;;;;;5.03;3.92;;;;;;;15.45;100.00;100890.41;5950841;29;20409;-92
2023/08/24 02:59:01;;;;;;;5.55;3.42;;;;;;;15.41;100.00;100879.47;5960365;29;20039;-92
2023/08/24 03:02:04;;;;;;;7.00;3.80;;;;;;;15.39;100.00;100876.16;5972848;29;20051;-91
2023/08/24 03:05:07;;;;;;;5.00;4.03;;;;;;;15.40;100.00;100872.59;5957874;29;20138;-92
2023/08/24 03:08:09;;;;;;;5.88;4.25;;;;;;;15.38;100.00;100873.69;5957226;29;20051;-91
2023/08/24 03:11:11;;;;;;;6.70;4.85;;;;;;;15.36;100.00;100870.44;5965014;29;20050;-91
2023/08/24 03:14:13;;;;;;;7.55;4.35;;;;;;;15.37;100.00;100875.47;5958396;29;20047;-91
2023/08/24 03:17:14;;;;;;;6.82;4.15;;;;;;;15.40;100.00;100870.00;5958617;29;20391;-92
2023/08/24 03:20:19;;;;;;;6.63;4.47;;;;;;;15.40;100.00;100880.44;5958836;29;20047;-91
2023/08/24 03:23:21;;;;;;;7.05;4.78;;;;;;;15.38;100.00;100878.91;5950710;29;20184;-92
2023/08/24 03:26:23;;;;;;;8.35;4.85;;;;;;;15.35;100.00;100882.63;5949149;29;20062;-91
2023/08/24 03:29:28;;;;;;;7.05;5.00;;;;;;;15.37;100.00;100882.50;5959851;29;20047;-91
2023/08/24 03:32:30;;;;;;;6.93;4.60;;;;;;;15.34;100.00;100883.59;5958889;29;20376;-92
2023/08/24 03:35:33;;;;;;;5.20;4.65;;;;;;;15.31;100.00;100893.50;5959051;29;20497;-92
2023/08/24 03:38:35;;;;;;;7.32;4.30;;;;;;;15.28;100.00;100898.03;5965848;29;20688;-92
2023/08/24 03:41:39;;;;;;;9.07;4.78;;;;;;;15.24;100.00;100896.69;5961725;29;20459;-92
2023/08/24 03:44:41;;;;;;;8.52;5.07;;;;;;;15.23;100.00;100884.63;5956377;29;20410;-93
2023/08/24 03:47:43;;;;;;;5.57;4.50;;;;;;;15.23;100.00;100887.22;5942516;29;20077;-91
2023/08/24 03:50:45;;;;;;;8.68;4.75;;;;;;;15.23;100.00;100889.00;5938615;29;20157;-92
2023/08/24 03:53:47;;;;;;;5.05;4.50;;;;;;;15.21;100.00;100888.31;5948056;29;20054;-91
2023/08/24 03:56:50;;;;;;;6.25;5.00;;;;;;;15.19;100.00;100887.66;5956260;29;20502;-91
2023/08/24 03:59:52;;;;;;;5.18;4.68;;;;;;;15.18;100.00;100885.97;5958797;29;20058;-91
2023/08/24 04:02:53;;;;;;;10.60;5.00;;;;;;;15.17;100.00;100895.59;5956588;29;20407;-92
2023/08/24 04:05:59;;;;;;;6.05;5.20;;;;;;;15.17;100.00;100892.19;5956145;29;20086;-92
2023/08/24 04:09:01;;;;;;;6.57;4.88;;;;;;;15.18;100.00;100909.44;5957446;29;20528;-93
2023/08/24 04:12:03;;;;;;;6.20;4.90;;;;;;;15.16;100.00;100916.63;5960739;29;20227;-92
2023/08/24 04:15:05;;;;;;;6.88;4.78;;;;;;;15.16;100.00;100916.63;5971897;29;20046;-91
2023/08/24 04:18:07;;;;;;;5.75;4.60;;;;;;;15.16;100.00;100919.22;5964593;29;20373;-91
2023/08/24 04:21:09;;;;;;;5.47;4.55;;;;;;;15.14;100.00;100915.94;5957651;29;20418;-92
2023/08/24 04:24:11;;;;;;;4.78;4.38;;;;;;;15.13;100.00;100909.91;5946344;29;20055;-91
2023/08/24 04:27:13;;;;;;;7.65;4.78;;;;;;;15.21;100.00;100911.81;5956214;29;20557;-92
2023/08/24 04:30:15;;;;;;;5.10;4.60;;;;;;;15.24;100.00;100920.16;5956155;29;20045;-91
2023/08/24 04:33:17;;;;;;;5.45;4.93;;;;;;;15.30;100.00;100923.97;5942498;29;20116;-91
2023/08/24 04:36:19;;;;;;;7.20;4.72;;;;;;;15.41;100.00;100923.00;5957463;29;20654;-91
2023/08/24 04:39:20;;;;;;;8.05;5.07;;;;;;;15.60;100.00;100912.47;5948945;29;20054;-92
2023/08/24 04:42:22;;;;;;;7.25;4.60;;;;;;;15.79;100.00;100908.97;5950640;29;20083;-92
2023/08/24 04:45:24;;;;;;;5.57;5.00;;;;;;;15.98;100.00;100907.22;5943867;29;20078;-92
2023/08/24 04:48:26;;;;;;;5.15;4.55;;;;;;;16.14;100.00;100917.81;5958577;29;20051;-92
2023/08/24 04:51:29;;;;;;;8.88;5.13;;;;;;;16.24;100.00;100915.97;5939501;29;20055;-92
2023/08/24 04:54:30;;;;;;;5.70;5.07;;;;;;;16.35;100.00;100925.41;5941009;29;20043;-92
2023/08/24 04:57:32;;;;;;;6.43;5.70;;;;;;;16.42;100.00;100929.06;5939773;29;20047;-92
2023/08/24 05:00:35;;;;;;;6.28;5.28;;;;;;;16.50;100.00;100913.44;5956246;29;20535;-92
2023/08/24 05:03:37;;;;;;;9.75;5.97;;;;;;;16.54;100.00;100908.72;5945501;29;20207;-92
2023/08/24 05:06:41;;;;;;;6.95;5.15;;;;;;;16.58;100.00;100910.88;5958128;29;20130;-92
2023/08/24 05:09:43;;;;;;;6.60;5.50;;;;;;;16.63;100.00;100909.63;5934557;29;20039;-92
2023/08/24 05:12:45;;;;;;;5.95;4.93;;;;;;;16.65;100.00;100908.50;5951057;29;20125;-92
2023/08/24 05:15:47;;;;;;;7.72;5.88;;;;;;;16.67;100.00;100900.50;5963676;29;20738;-92
2023/08/24 05:18:50;;;;;;;9.02;5.80;;;;;;;16.69;100.00;100888.09;5957740;29;20059;-92
2023/08/24 05:21:52;;;;;;;6.75;5.60;;;;;;;16.74;100.00;100891.06;5954857;29;20169;-92
2023/08/24 05:24:54;;;;;;;10.57;5.68;;;;;;;16.76;100.00;100910.84;5964652;29;20449;-92
2023/08/24 05:27:59;;;;;;;5.60;4.88;;;;;;;16.84;100.00;100906.69;5952931;29;20075;-92
2023/08/24 05:31:01;;;;;;;15.75;5.80;;;;;;;16.93;100.00;100908.41;5957288;29;20208;-94
2023/08/24 05:34:03;;;;;;;5.65;5.03;;;;;;;17.08;100.00;100922.56;5951912;29;20047;-93
2023/08/24 05:37:05;;;;;;;8.13;5.97;;;;;;;17.22;100.00;100929.84;5951960;29;20054;-93
2023/08/24 05:40:07;;;;;;;7.95;6.53;;;;;;;17.29;100.00;100922.22;5958772;29;20046;-92
2023/08/24 05:43:10;;;;;;;7.95;6.38;;;;;;;17.32;100.00;100924.50;5958425;29;20406;-93
2023/08/24 05:46:11;;;;;;;5.78;5.20;;;;;;;17.32;100.00;100936.78;5942164;29;20051;-92
2023/08/24 05:49:14;;;;;;;6.32;5.72;;;;;;;17.31;100.00;100935.13;5951770;29;20115;-92
2023/08/24 05:52:16;;;;;;;5.57;5.07;;;;;;;17.30;100.00;100917.78;5941810;29;20047;-92
2023/08/24 05:55:18;;;;;;;6.43;5.80;;;;;;;17.29;100.00;100911.75;5944548;29;20043;-92
2023/08/24 05:58:20;;;;;;;7.28;5.95;;;;;;;17.31;100.00;100896.69;5958637;29;20050;-92
2023/08/24 06:01:21;;;;;;;8.15;6.00;;;;;;;17.32;100.00;100894.91;5955150;29;20474;-92
2023/08/24 06:04:24;;;;;;;8.35;5.97;;;;;;;17.32;100.00;100889.69;5956155;29;20055;-92
2023/08/24 06:07:25;;;;;;;8.85;5.70;;;;;;;17.40;100.00;100876.63;5949512;29;20150;-92
2023/08/24 06:10:27;;;;;;;7.40;6.00;;;;;;;17.44;100.00;100863.06;5950876;29;20061;-92
2023/08/24 06:13:29;;;;;;;6.93;6.22;;;;;;;17.51;100.00;100867.66;5961391;29;20425;-92
2023/08/24 06:16:31;;;;;;;6.80;6.10;;;;;;;17.59;100.00;100871.13;5945201;29;20055;-92
2023/08/24 06:19:33;;;;;;;7.95;4.45;;;;;;;17.61;100.00;100860.50;5967130;29;20137;-92
2023/08/24 06:22:35;;;;;;;4.90;4.35;;;;;;;17.59;100.00;100849.38;5953134;29;20063;-92
2023/08/24 06:25:37;;;;;;;7.00;4.90;;;;;;;17.58;100.00;100845.91;5953675;29;20367;-92
2023/08/24 06:28:42;;;;;;;6.97;5.13;;;;;;;17.65;100.00;100849.53;5960612;29;20042;-92
2023/08/24 06:31:44;;;;;;;7.57;5.15;;;;;;;17.72;100.00;100851.53;5958898;29;20039;-93
2023/08/24 06:34:46;;;;;;;7.88;4.90;;;;;;;17.76;100.00;100852.84;5953104;29;20414;-92
2023/08/24 06:37:48;;;;;;;7.38;5.65;;;;;;;17.74;100.00;100846.94;5952213;29;20047;-92
2023/08/24 06:40:51;;;;;;;5.53;4.45;;;;;;;17.75;100.00;100840.75;5957362;29;20051;-92
2023/08/24 06:43:53;;;;;;;6.20;5.60;;;;;;;17.78;100.00;100836.00;5944369;29;20478;-92
2023/08/24 06:46:55;;;;;;;6.68;5.25;;;;;;;17.75;100.00;100836.31;5939072;29;20062;-93
2023/08/24 06:49:57;;;;;;;7.90;5.85;;;;;;;17.74;100.00;100839.94;5949789;29;20048;-93
2023/08/24 06:52:59;;;;;;;7.72;5.80;;;;;;;17.73;100.00;100840.88;5952207;29;20090;-92
2023/08/24 06:56:01;;;;;;;5.78;4.90;;;;;;;17.92;100.00;100837.22;5941834;29;20502;-93
2023/08/24 06:59:03;;;;;;;5.47;4.97;;;;;;;18.30;100.00;100848.84;5951234;29;20643;-92
2023/08/24 07:02:05;;;;;;;6.50;5.90;;;;;;;18.76;100.00;100837.88;5943054;29;20131;-92
2023/08/24 07:05:08;;;;;;;8.23;6.05;;;;;;;19.07;100.00;100837.13;5948835;29;20043;-92
2023/08/24 07:08:10;;;;;;;9.10;6.00;;;;;;;19.37;100.00;100838.16;5940008;29;20062;-92
2023/08/24 07:11:14;;;;;;;8.27;6.13;;;;;;;19.64;100.00;100830.81;5952041;29;20062;-92
2023/08/24 07:14:16;;;;;;;8.02;6.18;;;;;;;19.78;100.00;100823.03;5961151;29;20049;-92
2023/08/24 07:17:18;;;;;;;8.45;6.35;;;;;;;19.97;100.00;100824.41;5943984;29;20082;-92
2023/08/24 07:20:20;;;;;;;8.68;6.40;;;;;;;20.20;100.00;100815.69;5948926;29;20051;-92
2023/08/24 07:23:22;;;;;;;7.78;6.03;;;;;;;20.33;100.00;100818.50;5968574;29;20043;-92
2023/08/24 07:26:25;;;;;;;7.32;6.30;;;;;;;20.43;100.00;100811.19;5965085;29;20061;-92
2023/08/24 07:29:28;;;;;;;6.70;5.43;;;;;;;20.58;100.00;100810.44;5959538;29;20120;-92
2023/08/24 07:32:30;;;;;;;7.53;5.63;;;;;;;20.65;100.00;100809.53;5961207;29;20046;-92
2023/08/24 07:35:32;;;;;;;10.45;5.40;;;;;;;20.72;100.00;100804.38;5961653;29;20482;-92
2023/08/24 07:38:34;;;;;;;6.00;5.30;;;;;;;20.78;100.00;100798.38;5952677;29;20047;-93
2023/08/24 07:41:37;;;;;;;6.57;5.72;;;;;;;20.79;100.00;100792.09;5949753;29;20051;-92
2023/08/24 07:44:41;;;;;;;7.25;5.60;;;;;;;20.70;100.00;100795.84;5950600;29;20047;-92
2023/08/24 07:47:43;;;;;;;8.20;5.75;;;;;;;20.54;100.00;100778.34;5945433;29;20091;-92
2023/08/24 07:50:45;;;;;;;6.95;6.25;;;;;;;20.34;100.00;100772.81;5948338;29;20058;-92
2023/08/24 07:53:48;;;;;;;7.72;5.90;;;;;;;20.14;100.00;100782.19;5957947;29;20433;-92
2023/08/24 07:56:50;;;;;;;7.60;6.55;;;;;;;19.92;100.00;100776.78;5955682;29;20057;-92
2023/08/24 07:59:53;;;;;;;6.45;5.85;;;;;;;19.82;100.00;100770.13;5956533;29;20039;-92
2023/08/24 08:02:55;;;;;;;7.63;6.30;;;;;;;19.79;100.00;100776.56;5951080;29;20062;-92
2023/08/24 08:05:58;;;;;;;8.20;6.13;;;;;;;19.78;100.00;100767.88;5961032;29;20647;-92
2023/08/24 08:09:00;;;;;;;7.95;7.25;;;;;;;19.83;100.00;100761.28;5952283;29;20051;-92
2023/08/24 08:12:03;;;;;;;7.60;6.53;;;;;;;19.88;100.00;100766.81;5964251;29;20042;-92
2023/08/24 08:15:06;;;;;;;7.32;6.72;;;;;;;19.92;100.00;100768.09;5957520;29;20493;-92
2023/08/24 08:18:08;;;;;;;6.85;6.18;;;;;;;19.95;100.00;100754.59;5962556;29;20057;-93
2023/08/24 08:21:19;;;;;;;6.82;6.18;;;;;;;20.00;100.00;100760.97;5959191;29;20089;-91
2023/08/24 08:24:23;;;;;;;8.18;6.20;;;;;;;20.07;100.00;100762.88;5956644;29;20483;-92
2023/08/24 08:27:26;;;;;;;7.28;6.50;;;;;;;20.13;100.00;100747.22;5955848;29;20181;-92
2023/08/24 08:30:28;;;;;;;7.35;6.65;;;;;;;20.22;100.00;100761.09;5960060;29;20074;-92
2023/08/24 08:33:30;;;;;;;10.68;7.28;;;;;;;20.26;100.00;100762.38;5948883;29;20411;-92
2023/08/24 08:36:32;;;;;;;7.25;6.57;;;;;;;20.30;100.00;100760.22;5952389;29;20054;-91
2023/08/24 08:39:35;;;;;;;7.82;7.13;;;;;;;20.35;100.00;100760.50;5968460;29;20068;-92
2023/08/24 08:42:37;;;;;;;7.30;6.60;;;;;;;20.40;100.00;100772.09;5975474;29;20055;-92
2023/08/24 08:45:40;;;;;;;7.30;6.55;;;;;;;20.48;100.00;100765.13;5952900;29;20039;-92
2023/08/24 08:48:43;;;;;;;6.82;6.20;;;;;;;20.58;100.00;100756.00;5948526;29;20058;-92
2023/08/24 08:51:45;;;;;;;6.38;5.88;;;;;;;20.61;100.00;100755.63;5945446;29;20522;-92
2023/08/24 08:54:47;;;;;;;6.60;5.97;;;;;;;20.69;100.00;100753.91;5951808;29;20126;-91
2023/08/24 08:57:49;;;;;;;7.70;6.57;;;;;;;20.77;100.00;100754.66;5956974;29;20506;-92
2023/08/24 09:00:52;;;;;;;7.95;6.63;;;;;;;20.89;100.00;100747.09;5953522;29;20050;-91
2023/08/24 09:03:54;;;;;;;7.78;6.28;;;;;;;20.97;100.00;100746.19;5947856;29;20050;-91
2023/08/24 09:06:56;;;;;;;6.60;5.80;;;;;;;21.05;100.00;100743.44;5941815;29;20047;-91
2023/08/24 09:09:58;;;;;;;7.50;6.15;;;;;;;21.12;100.00;100739.09;5952730;29;20493;-91
2023/08/24 09:13:00;;;;;;;7.90;5.80;;;;;;;21.19;100.00;100737.34;5955241;29;20073;-91
2023/08/24 09:16:04;;;;;;;7.70;5.65;;;;;;;21.28;100.00;100736.22;5948945;29;20048;-91
2023/08/24 09:19:12;;;;;;;6.97;6.00;;;;;;;21.40;100.00;100728.66;5959264;29;20517;-91
2023/08/24 09:22:15;;;;;;;8.20;5.55;;;;;;;21.51;100.00;100729.97;5951752;29;20542;-90
2023/08/24 09:25:17;;;;;;;7.50;5.38;;;;;;;21.61;100.00;100725.22;5955571;29;20055;-91
2023/08/24 09:28:24;;;;;;;5.70;5.10;;;;;;;21.75;100.00;100718.25;5954486;29;20051;-91
2023/08/24 09:31:37;;;;;;;5.68;5.07;;;;;;;21.97;100.00;100695.31;5958298;29;20047;-91
2023/08/24 09:34:42;;;;;;;7.25;5.88;;;;;;;22.15;100.00;100710.66;5957865;29;20830;-91
2023/08/24 09:37:45;;;;;;;8.65;5.20;;;;;;;22.25;100.00;100723.53;5956007;29;20107;-91
2023/08/24 09:40:52;;;;;;;6.70;5.00;;;;;;;22.32;100.00;100716.47;5951308;29;20524;-91
2023/08/24 09:43:54;;;;;;;7.88;5.20;;;;;;;22.32;100.00;100709.38;5946925;29;20047;-91
2023/08/24 09:46:56;;;;;;;6.82;5.18;;;;;;;22.36;100.00;100709.81;5952723;29;20421;-91
2023/08/24 09:49:59;;;;;;;5.13;4.72;;;;;;;22.47;100.00;100693.41;5953065;29;20047;-91
2023/08/24 09:53:03;;;;;;;8.07;5.03;;;;;;;22.55;100.00;100689.81;5942221;29;20054;-91
2023/08/24 09:56:07;;;;;;;5.22;4.80;;;;;;;22.59;100.00;100685.78;5958587;29;20951;-91
2023/08/24 09:59:18;;;;;;;5.30;4.80;;;;;;;22.69;100.00;100672.22;5978291;29;20079;-91
2023/08/24 10:02:23;;;;;;;6.35;4.50;;;;;;;22.83;100.00;100671.25;5955998;29;20327;-91
2023/08/24 10:05:27;;;;;;;6.53;5.57;;;;;;;23.00;100.00;100654.06;5953645;29;20062;-91
2023/08/24 10:08:58;;;;;;;5.78;5.20;;;;;;;23.12;100.00;100649.00;5942406;29;20043;-91
2023/08/24 10:12:05;;;;;;;7.05;5.45;;;;;;;23.26;100.00;100655.13;5969398;29;20058;-91
2023/08/24 10:15:08;;;;;;;5.70;4.80;;;;;;;23.36;100.00;100652.09;5954729;29;20122;-91
2023/08/24 10:18:10;;;;;;;7.05;5.25;;;;;;;23.47;100.00;100653.31;5951211;29;20664;-91
2023/08/24 10:21:13;;;;;;;5.88;4.93;;;;;;;23.61;100.00;100641.72;5938118;29;20062;-91
2023/08/24 10:24:16;;;;;;;5.65;4.32;;;;;;;23.74;100.00;100635.63;5946737;29;20051;-92
2023/08/24 10:27:18;;;;;;;5.53;4.20;;;;;;;23.92;100.00;100625.22;5950895;29;20057;-91
2023/08/24 10:30:21;;;;;;;4.70;4.30;;;;;;;24.16;100.00;100623.75;5949437;29;20046;-92
2023/08/24 10:33:24;;;;;;;6.45;4.60;;;;;;;24.44;100.00;100617.34;5954521;29;20070;-91
2023/08/24 10:36:26;;;;;;;6.40;4.85;;;;;;;24.63;100.00;100619.13;5949708;29;20491;-92
2023/08/24 10:39:29;;;;;;;9.90;5.50;;;;;;;24.71;100.00;100623.34;5944804;29;20054;-92
2023/08/24 10:42:45;;;;;;;5.88;4.70;;;;;;;24.73;100.00;100626.59;5961232;29;20066;-92
2023/08/24 10:46:03;;;;;;;5.57;5.07;;;;;;;24.87;100.00;100624.69;5953787;29;20126;-92
2023/08/24 10:49:07;;;;;;;7.53;4.40;;;;;;;25.01;100.00;100620.91;5950091;29;20079;-91
2023/08/24 10:52:36;;;;;;;5.22;4.55;;;;;;;25.31;100.00;100621.13;5952273;29;20487;-91
2023/08/24 10:55:38;;;;;;;5.60;4.28;;;;;;;25.68;100.00;100631.81;5961187;29;20083;-90
2023/08/24 10:58:41;;;;;;;5.95;4.35;;;;;;;26.04;100.00;100640.06;5945246;29;20088;-90
2023/08/24 11:01:55;;;;;;;6.32;3.88;;;;;;;26.33;100.00;100631.38;5961607;29;20047;-90
2023/08/24 11:05:16;;;;;;;7.47;4.05;;;;;;;26.60;100.00;100620.44;5943553;29;20042;-90
2023/08/24 11:08:18;;;;;;;4.50;3.80;;;;;;;26.80;100.00;100612.19;5940697;29;20126;-90
2023/08/24 11:11:21;;;;;;;4.90;4.40;;;;;;;26.93;100.00;100609.38;5959174;29;20122;-90
2023/08/24 11:14:25;;;;;;;5.70;3.95;;;;;;;27.00;100.00;100617.22;5969387;29;20047;-90
2023/08/24 11:17:33;;;;;;;6.00;4.15;;;;;;;27.10;100.00;100619.31;5955358;29;20519;-90
2023/08/24 11:20:36;;;;;;;8.20;3.92;;;;;;;27.18;100.00;100609.22;5950737;29;20043;-90
2023/08/24 11:23:38;;;;;;;5.78;4.03;;;;;;;27.19;100.00;100596.72;5956282;29;20222;-89
2023/08/24 11:26:45;;;;;;;4.65;3.55;;;;;;;27.20;100.00;100596.47;5956944;29;20137;-90
2023/08/24 11:29:58;;;;;;;4.88;4.00;;;;;;;27.17;100.00;100590.78;5950634;29;20619;-91
2023/08/24 11:33:00;;;;;;;5.45;3.55;;;;;;;27.06;100.00;100595.88;5957036;29;20054;-90
2023/08/24 11:36:08;;;;;;;6.18;3.90;;;;;;;27.03;100.00;100590.19;5957314;29;20404;-91
2023/08/24 11:39:19;;;;;;;3.70;3.05;;;;;;;26.98;100.00;100582.94;5975843;29;20066;-91
2023/08/24 11:42:21;;;;;;;6.55;3.65;;;;;;;27.00;100.00;100570.19;5971021;29;20108;-91
2023/08/24 11:45:24;;;;;;;6.35;3.38;;;;;;;27.08;100.00;100566.44;5964508;29;20043;-90
2023/08/24 11:48:26;;;;;;;4.00;3.63;;;;;;;27.17;100.00;100549.06;5955207;29;20046;-91
2023/08/24 11:51:29;;;;;;;3.85;3.15;;;;;;;27.23;100.00;100542.09;5955400;29;20049;-90
2023/08/24 11:54:45;;;;;;;4.57;3.08;;;;;;;27.25;100.00;100535.50;5959652;29;20059;-90
2023/08/24 11:57:47;;;;;;;3.88;3.08;;;;;;;27.32;100.00;100531.91;5951873;29;20116;-91
2023/08/24 12:00:50;;;;;;;3.53;3.20;;;;;;;27.47;100.00;100526.91;5955494;29;20050;-91
2023/08/24 12:03:52;;;;;;;5.38;2.95;;;;;;;27.68;100.00;100513.00;5952987;29;20182;-92
2023/08/24 12:06:54;;;;;;;3.17;2.50;;;;;;;27.85;100.00;100497.16;5947715;29;20126;-91
2023/08/24 12:10:01;;;;;;;3.72;2.72;;;;;;;28.01;100.00;100497.44;5952305;29;20130;-91
2023/08/24 12:13:10;;;;;;;4.88;3.08;;;;;;;28.18;100.00;100489.50;5955791;29;20043;-91
2023/08/24 12:16:19;;;;;;;3.17;2.70;;;;;;;28.34;100.00;100478.06;5957533;29;21223;-91
2023/08/24 12:19:21;;;;;;;4.68;2.97;;;;;;;28.27;100.00;100466.75;5957421;29;20051;-91
2023/08/24 12:22:24;;;;;;;6.38;2.70;;;;;;;28.32;100.00;100467.69;5957823;29;20066;-91
2023/08/24 12:25:26;;;;;;;3.13;2.70;;;;;;;28.46;100.00;100449.53;5950841;29;20047;-91
2023/08/24 12:28:29;;;;;;;3.13;2.80;;;;;;;28.58;100.00;100451.34;5949167;29;20051;-91
2023/08/24 12:31:32;;;;;;;6.80;2.78;;;;;;;28.62;100.00;100447.94;5954608;29;20050;-92
2023/08/24 12:34:34;;;;;;;5.80;2.70;;;;;;;28.61;100.00;100440.19;5957808;29;20054;-91
2023/08/24 12:37:36;;;;;;;2.63;2.42;;;;;;;28.67;100.00;100433.88;5956053;29;20571;-91
2023/08/24 12:40:39;;;;;;;4.43;2.50;;;;;;;28.71;100.00;100435.81;5955093;29;20077;-91
2023/08/24 12:43:41;;;;;;;3.30;3.00;;;;;;;28.76;100.00;100438.56;5956819;29;20058;-90
2023/08/24 12:46:45;;;;;;;3.88;2.85;;;;;;;28.88;100.00;100443.00;5957112;29;20043;-93
2023/08/24 12:49:50;;;;;;;3.95;2.70;;;;;;;29.13;100.00;100438.03;5955888;29;20054;-91
2023/08/24 12:52:56;;;;;;;4.93;2.47;;;;;;;29.41;100.00;100441.56;5958521;29;20140;-91
2023/08/24 12:56:07;;;;;;;3.35;2.67;;;;;;;29.56;100.00;100439.09;5953557;29;20130;-91
2023/08/24 12:59:09;;;;;;;3.35;3.03;;;;;;;29.57;100.00;100431.91;5955884;29;20074;-91
2023/08/24 13:02:11;;;;;;;4.78;2.65;;;;;;;29.58;100.00;100434.31;5950821;29;20043;-91
2023/08/24 13:05:25;;;;;;;5.38;2.90;;;;;;;29.57;100.00;100434.59;5956670;29;20043;-91
2023/08/24 13:08:30;;;;;;;5.97;3.72;;;;;;;29.64;100.00;100432.53;5954382;29;20058;-90
2023/08/24 13:11:32;;;;;;;4.55;2.70;;;;;;;29.68;100.00;100404.31;5955827;29;20051;-91
2023/08/24 13:14:34;;;;;;;4.85;3.08;;;;;;;29.69;100.00;100413.94;5958799;29;20054;-90
2023/08/24 13:17:36;;;;;;;4.82;2.90;;;;;;;29.65;100.00;100420.00;5955651;29;20546;-90
2023/08/24 13:20:38;;;;;;;4.40;2.58;;;;;;;29.60;100.00;100439.41;5955104;29;20361;-91
2023/08/24 13:23:42;;;;;;;5.65;2.90;;;;;;;29.79;100.00;100438.06;5959802;29;20045;-91
2023/08/24 13:26:43;;;;;;;2.40;2.10;;;;;;;30.01;100.00;100421.16;5954374;29;20050;-90
2023/08/24 13:29:46;;;;;;;5.88;2.60;;;;;;;30.21;100.00;100410.69;5956581;29;20046;-91
2023/08/24 13:32:48;;;;;;;4.70;2.45;;;;;;;30.41;100.00;100404.72;5953266;29;20099;-90
2023/08/24 13:35:50;;;;;;;3.97;2.53;;;;;;;30.54;100.00;100400.81;5963511;29;20055;-90
2023/08/24 13:38:52;;;;;;;6.25;2.20;;;;;;;30.63;100.00;100401.13;5954342;29;20047;-91
2023/08/24 13:41:56;;;;;;;4.00;2.50;;;;;;;30.67;100.00;100403.03;5955055;29;20525;-90
2023/08/24 13:44:58;;;;;;;3.95;2.40;;;;;;;30.65;100.00;100399.78;5949570;29;20043;-91
2023/08/24 13:47:59;;;;;;;2.25;2.05;;;;;;;30.60;96.89;100389.06;5950550;29;20859;-91
2023/08/24 13:51:02;;;;;;;4.97;2.40;;;;;;;30.46;100.00;100411.97;5938429;29;20054;-90
2023/08/24 13:54:15;;;;;;;2.72;2.17;;;;;;;30.43;100.00;100401.78;5951717;29;20081;-90
2023/08/24 13:57:17;;;;;;;4.35;2.47;;;;;;;30.48;100.00;100399.16;5954457;29;20043;-91
2023/08/24 14:00:19;;;;;;;4.05;2.92;;;;;;;30.58;100.00;100399.22;5942335;29;20502;-90
2023/08/24 14:03:22;;;;;;;4.07;3.00;;;;;;;30.57;100.00;100392.28;5955557;29;20047;-90